Time,TemperatureF,DewpointF,PressureIn,WindDirection,WindDirectionDegrees,WindSpeedMPH,WindSpeedGustMPH,Humidity,HourlyPrecipIn,Conditions,Clouds,dailyrainin,SoftwareType,DateUTC
2013-03-12 00:00:00,57.4,53.9,30.08,SW,225,1.0,9.0,88,0.03,,,0.02,VWS V14.01,2013-03-12 04:00:00,
2013-03-12 00:30:00,56.7,53.8,30.06,South,180,0.0,9.0,90,0.06,,,0.05,VWS V14.01,2013-03-12 04:30:00,
2013-03-12 01:00:00,56.2,53.9,30.05,SSE,158,0.0,6.0,92,0.08,,,0.08,VWS V14.01,2013-03-12 05:00:00,
2013-03-12 01:30:00,55.8,53.8,30.04,SSE,158,0.0,10.0,93,0.10,,,0.12,VWS V14.01,2013-03-12 05:30:00,
2013-03-12 02:00:00,55.7,54.0,30.03,SSE,158,0.0,5.0,94,0.08,,,0.13,VWS V14.01,2013-03-12 06:00:00,
2013-03-12 02:30:00,55.8,54.4,30.00,SSE,158,1.0,7.0,95,0.10,,,0.18,VWS V14.01,2013-03-12 06:30:00,
2013-03-12 03:30:00,56.5,55.4,29.97,SSW,202,2.0,11.0,96,0.14,,,0.27,VWS V14.01,2013-03-12 07:30:00,
2013-03-12 04:00:00,56.8,55.7,29.97,SW,225,2.0,10.0,96,0.12,,,0.30,VWS V14.01,2013-03-12 08:00:00,
2013-03-12 04:30:00,56.8,55.7,29.95,SSW,202,3.0,16.0,96,0.18,,,0.39,VWS V14.01,2013-03-12 08:30:00,
2013-03-12 05:00:00,56.9,55.8,29.94,SSW,202,2.0,11.0,96,0.20,,,0.47,VWS V14.01,2013-03-12 09:00:00,
2013-03-12 05:30:00,57.2,56.4,29.92,SSW,202,2.0,11.0,97,0.24,,,0.54,VWS V14.01,2013-03-12 09:30:00,
2013-03-12 06:00:00,57.7,56.9,29.90,SW,225,2.0,15.0,97,0.17,,,0.56,VWS V14.01,2013-03-12 10:00:00,
2013-03-12 06:30:00,58.3,57.5,29.91,SW,225,2.0,10.0,97,0.33,,,0.80,VWS V14.01,2013-03-12 10:30:00,
2013-03-12 07:00:00,59.0,58.2,29.91,SW,225,2.0,14.0,97,0.42,,,0.96,VWS V14.01,2013-03-12 11:00:00,
2013-03-12 07:30:00,58.9,58.0,29.92,SW,225,4.0,16.0,97,0.49,,,1.05,VWS V14.01,2013-03-12 11:30:00,
2013-03-12 08:00:00,58.7,57.8,29.92,SW,225,2.0,11.0,97,0.31,,,1.11,VWS V14.01,2013-03-12 12:00:00,
2013-03-12 08:30:00,58.6,57.8,29.94,SW,225,2.0,15.0,97,0.19,,,1.15,VWS V14.01,2013-03-12 12:30:00,
2013-03-12 09:00:00,58.6,57.8,29.94,SW,225,2.0,11.0,97,0.12,,,1.17,VWS V14.01,2013-03-12 13:00:00,
2013-03-12 09:30:00,58.9,58.0,29.94,SW,225,1.0,9.0,97,0.06,,,1.17,VWS V14.01,2013-03-12 13:30:00,
2013-03-12 10:00:00,59.0,58.2,29.95,SW,225,1.0,8.0,97,0.02,,,1.17,VWS V14.01,2013-03-12 14:00:00,
2013-03-12 10:30:00,57.9,56.8,29.96,NNW,338,1.0,10.0,96,0.01,,,1.18,VWS V14.01,2013-03-12 14:30:00,
2013-03-12 11:00:00,56.7,55.6,29.97,ENE,68,0.0,4.0,96,0.03,,,1.20,VWS V14.01,2013-03-12 15:00:00,
2013-03-12 11:30:00,56.8,55.7,29.98,North,0,0.0,7.0,96,0.03,,,1.20,VWS V14.01,2013-03-12 15:30:00,
2013-03-12 12:00:00,56.7,55.3,30.00,North,0,1.0,10.0,95,0.02,,,1.20,VWS V14.01,2013-03-12 16:00:00,
2013-03-12 12:30:00,59.7,53.5,29.99,NNE,22,1.0,10.0,80,0.00,,,1.20,VWS V14.01,2013-03-12 16:30:00,
2013-03-12 13:00:00,61.2,53.6,29.99,NNE,22,2.0,8.0,76,0.00,,,1.20,VWS V14.01,2013-03-12 17:00:00,
2013-03-12 13:30:00,63.1,55.4,29.98,NNE,22,1.0,7.0,76,0.00,,,1.20,VWS V14.01,2013-03-12 17:30:00,
2013-03-12 14:00:00,64.6,54.2,29.97,SW,225,1.0,7.0,69,0.00,,,1.20,VWS V14.01,2013-03-12 18:00:00,
2013-03-12 14:30:00,66.6,56.1,29.95,North,0,1.0,10.0,69,0.00,,,1.20,VWS V14.01,2013-03-12 18:30:00,
2013-03-12 15:00:00,67.0,54.0,29.95,NW,315,1.0,7.0,63,0.00,,,1.20,VWS V14.01,2013-03-12 19:00:00,
2013-03-12 15:30:00,66.5,53.5,29.96,North,0,0.0,7.0,63,0.00,,,1.20,VWS V14.01,2013-03-12 19:30:00,
2013-03-12 16:00:00,66.5,51.8,29.97,North,0,0.0,0.0,59,0.00,,,1.20,VWS V14.01,2013-03-12 20:00:00,
2013-03-12 16:30:00,67.6,51.4,29.97,North,0,0.0,0.0,56,0.00,,,1.20,VWS V14.01,2013-03-12 20:30:00,
2013-03-12 17:00:00,65.7,48.1,29.97,North,0,0.0,0.0,53,0.00,,,1.20,VWS V14.01,2013-03-12 21:00:00,
2013-03-12 17:30:00,64.4,40.8,29.98,North,0,0.0,10.0,42,0.00,,,1.20,VWS V14.01,2013-03-12 21:30:00,
2013-03-12 18:00:00,62.7,36.1,29.99,NNE,22,2.0,12.0,37,0.00,,,1.20,VWS V14.01,2013-03-12 22:00:00,
2013-03-12 18:30:00,61.5,37.0,30.00,NNW,338,1.0,11.0,40,0.00,,,1.20,VWS V14.01,2013-03-12 22:30:00,
2013-03-12 19:00:00,59.6,37.7,30.02,NNW,338,1.0,8.0,44,0.00,,,1.20,VWS V14.01,2013-03-12 23:00:00,
2013-03-12 19:30:00,57.6,35.3,30.04,NW,315,1.0,12.0,43,0.00,,,1.20,VWS V14.01,2013-03-12 23:30:00,
2013-03-12 20:00:00,55.7,34.7,30.06,NNE,22,1.0,10.0,45,0.00,,,1.20,VWS V14.01,2013-03-13 00:00:00,
2013-03-12 20:30:00,53.9,35.2,30.08,WNW,292,0.0,7.0,49,0.00,,,1.20,VWS V14.01,2013-03-13 00:30:00,
2013-03-12 21:00:00,52.6,34.0,30.09,North,0,0.0,5.0,49,0.00,,,1.20,VWS V14.01,2013-03-13 01:00:00,
2013-03-12 21:30:00,51.1,34.6,30.11,NW,315,0.0,7.0,53,0.00,,,1.20,VWS V14.01,2013-03-13 01:30:00,
2013-03-12 22:00:00,50.2,34.7,30.11,NNE,22,0.0,5.0,55,0.00,,,1.20,VWS V14.01,2013-03-13 02:00:00,
2013-03-12 22:30:00,49.2,34.6,30.13,NE,45,0.0,5.0,57,0.00,,,1.20,VWS V14.01,2013-03-13 02:30:00,
2013-03-12 23:00:00,47.8,35.0,30.13,NE,45,0.0,3.0,61,0.00,,,1.20,VWS V14.01,2013-03-13 03:00:00,
2013-03-12 23:30:00,46.3,36.0,30.13,NE,45,0.0,0.0,67,0.00,,,1.20,VWS V14.01,2013-03-13 03:30:00,